Time;durP1;ratioP1;P1;durP2;ratioP2;P2;SDS_P1;SDS_P2;PMS_P1;PMS_P2;Temp;Humidity;BMP_temperature;BMP_pressure;BME280_temperature;BME280_humidity;BME280_pressure;Samples;Min_cycle;Max_cycle;Signal;HPM_P1;HPM_P2
2023/03/04 00:00:50;;;;;;;69.63;26.23;;;;;;;;;;8244522;28;20034;-60
2023/03/04 00:04:50;;;;;;;60.63;25.75;;;;;;;;;;8243452;28;20482;-60
2023/03/04 00:08:50;;;;;;;64.07;25.52;;;;;;;;;;8244094;28;20033;-60
2023/03/04 00:12:50;;;;;;;63.42;25.15;;;;;;;;;;8244917;28;20029;-60
2023/03/04 00:16:51;;;;;;;64.10;26.58;;;;;;;;;;8245375;28;20497;-60
2023/03/04 00:20:51;;;;;;;64.03;24.98;;;;;;;;;;8245560;28;20393;-61
2023/03/04 00:24:51;;;;;;;61.83;25.57;;;;;;;;;;8248809;28;20037;-60
2023/03/04 00:28:51;;;;;;;60.60;24.83;;;;;;;;;;8251684;28;20888;-60
2023/03/04 00:32:51;;;;;;;63.03;25.77;;;;;;;;;;8247089;28;20558;-61
2023/03/04 00:36:51;;;;;;;65.97;25.20;;;;;;;;;;8251888;28;20296;-61
2023/03/04 00:40:52;;;;;;;64.18;26.20;;;;;;;;;;8249394;28;20083;-60
2023/03/04 00:44:52;;;;;;;65.97;26.63;;;;;;;;;;8250442;28;20187;-61
2023/03/04 00:48:52;;;;;;;56.67;23.95;;;;;;;;;;8246967;28;20281;-61
2023/03/04 00:52:52;;;;;;;62.95;25.20;;;;;;;;;;8245928;28;21087;-61
2023/03/04 00:56:52;;;;;;;59.45;24.27;;;;;;;;;;8246627;28;20031;-61
2023/03/04 01:00:53;;;;;;;55.33;22.20;;;;;;;;;;8245170;28;20149;-61
2023/03/04 01:04:53;;;;;;;49.78;21.38;;;;;;;;;;8245054;28;20025;-61
2023/03/04 01:08:53;;;;;;;52.75;20.77;;;;;;;;;;8241140;28;20031;-61
2023/03/04 01:12:53;;;;;;;53.95;21.58;;;;;;;;;;8245998;28;20030;-60
2023/03/04 01:16:53;;;;;;;54.08;20.63;;;;;;;;;;8245022;28;20414;-60
2023/03/04 01:20:53;;;;;;;53.83;21.98;;;;;;;;;;8244916;28;20084;-60
2023/03/04 01:24:53;;;;;;;58.83;24.15;;;;;;;;;;8245686;28;20200;-61
2023/03/04 01:28:54;;;;;;;54.58;22.77;;;;;;;;;;8245615;28;20481;-61
2023/03/04 01:32:54;;;;;;;48.55;21.23;;;;;;;;;;8245491;28;20049;-60
2023/03/04 01:36:54;;;;;;;50.63;21.90;;;;;;;;;;8250057;28;20117;-60
2023/03/04 01:40:54;;;;;;;54.05;22.63;;;;;;;;;;8244535;28;20506;-60
2023/03/04 01:44:54;;;;;;;54.17;21.17;;;;;;;;;;8249278;28;20089;-60
2023/03/04 01:48:55;;;;;;;56.67;21.25;;;;;;;;;;8249834;28;20437;-60
2023/03/04 01:52:55;;;;;;;50.10;21.57;;;;;;;;;;8247350;28;20471;-60
2023/03/04 01:56:56;;;;;;;50.63;21.58;;;;;;;;;;8245070;28;20280;-60
2023/03/04 02:00:56;;;;;;;55.55;21.55;;;;;;;;;;8244295;28;20139;-61
2023/03/04 02:04:56;;;;;;;54.10;23.02;;;;;;;;;;8241927;28;20026;-60
2023/03/04 02:08:57;;;;;;;49.30;19.15;;;;;;;;;;8246157;28;20115;-60
2023/03/04 02:12:57;;;;;;;52.10;21.67;;;;;;;;;;8245919;28;20030;-60
2023/03/04 02:16:57;;;;;;;52.53;21.92;;;;;;;;;;8245394;28;20363;-60
2023/03/04 02:21:01;;;;;;;53.63;21.67;;;;;;;;;;8245960;28;20036;-61
2023/03/04 02:25:08;;;;;;;55.85;22.50;;;;;;;;;;8245698;28;20572;-60
2023/03/04 02:29:09;;;;;;;54.63;22.00;;;;;;;;;;8248471;28;20520;-60
2023/03/04 02:33:12;;;;;;;56.53;23.08;;;;;;;;;;8242897;28;20371;-60
2023/03/04 02:37:13;;;;;;;51.55;20.67;;;;;;;;;;8244059;28;20025;-61
2023/03/04 02:41:15;;;;;;;64.78;24.00;;;;;;;;;;8243772;28;20786;-61
2023/03/04 02:45:30;;;;;;;58.53;23.27;;;;;;;;;;8245386;28;20486;-61
2023/03/04 02:49:31;;;;;;;53.97;22.70;;;;;;;;;;8245585;28;20586;-60
2023/03/04 02:53:31;;;;;;;50.25;20.05;;;;;;;;;;8248450;28;20022;-61
2023/03/04 02:57:32;;;;;;;53.13;20.98;;;;;;;;;;8245645;28;20268;-61
2023/03/04 03:01:32;;;;;;;51.70;21.42;;;;;;;;;;8247098;28;20062;-61
2023/03/04 03:05:34;;;;;;;54.92;21.55;;;;;;;;;;8242841;28;20033;-61
2023/03/04 03:09:35;;;;;;;50.28;22.23;;;;;;;;;;8243905;28;20442;-61
2023/03/04 03:13:35;;;;;;;44.67;20.33;;;;;;;;;;8244451;28;20557;-61
2023/03/04 03:17:35;;;;;;;52.45;21.58;;;;;;;;;;8242616;28;20623;-60
2023/03/04 03:21:35;;;;;;;55.30;23.05;;;;;;;;;;8247355;28;20127;-61
2023/03/04 03:25:35;;;;;;;44.83;19.85;;;;;;;;;;8246479;28;20025;-60
2023/03/04 03:29:36;;;;;;;51.67;22.50;;;;;;;;;;8249808;28;20053;-61
2023/03/04 03:33:36;;;;;;;59.53;24.90;;;;;;;;;;8249519;28;20041;-61
2023/03/04 03:37:36;;;;;;;53.08;22.17;;;;;;;;;;8250238;28;20041;-61
2023/03/04 03:41:36;;;;;;;73.53;29.17;;;;;;;;;;8249364;28;20472;-62
2023/03/04 03:45:36;;;;;;;62.38;25.45;;;;;;;;;;8250342;28;20574;-61
2023/03/04 03:49:36;;;;;;;56.08;24.23;;;;;;;;;;8248993;28;20068;-61
2023/03/04 03:53:37;;;;;;;62.08;23.80;;;;;;;;;;8250150;28;20025;-61
2023/03/04 03:57:37;;;;;;;53.28;23.48;;;;;;;;;;8249259;28;20030;-61
2023/03/04 04:01:37;;;;;;;51.83;22.25;;;;;;;;;;8249010;28;20391;-61
2023/03/04 04:05:37;;;;;;;47.67;21.45;;;;;;;;;;8250476;28;20666;-61
2023/03/04 04:09:37;;;;;;;51.47;21.70;;;;;;;;;;8250638;28;20033;-61
2023/03/04 04:13:38;;;;;;;47.10;20.97;;;;;;;;;;8248623;28;20548;-61
2023/03/04 04:17:38;;;;;;;51.08;21.23;;;;;;;;;;8250034;28;20280;-61
2023/03/04 04:21:38;;;;;;;52.17;21.83;;;;;;;;;;8248893;28;20029;-61
2023/03/04 04:25:39;;;;;;;49.63;21.45;;;;;;;;;;8247342;28;20540;-61
2023/03/04 04:29:39;;;;;;;43.35;19.20;;;;;;;;;;8251111;28;20022;-61
2023/03/04 04:33:40;;;;;;;44.80;19.48;;;;;;;;;;8247702;28;20060;-61
2023/03/04 04:37:40;;;;;;;45.38;20.10;;;;;;;;;;8249237;28;20021;-61
2023/03/04 04:41:41;;;;;;;45.08;20.73;;;;;;;;;;8250829;28;20573;-62
2023/03/04 04:45:42;;;;;;;46.42;22.33;;;;;;;;;;8249702;28;20033;-61
2023/03/04 04:49:42;;;;;;;44.67;22.30;;;;;;;;;;8247424;28;20284;-61
2023/03/04 04:53:43;;;;;;;43.63;21.95;;;;;;;;;;8250815;28;20025;-62
2023/03/04 04:57:43;;;;;;;39.88;20.10;;;;;;;;;;8247689;28;20534;-62
2023/03/04 05:01:43;;;;;;;42.47;21.25;;;;;;;;;;8247882;28;20033;-62
2023/03/04 05:05:44;;;;;;;41.85;21.35;;;;;;;;;;8249965;28;20446;-62
2023/03/04 05:09:44;;;;;;;46.85;22.23;;;;;;;;;;8246887;28;20036;-62
2023/03/04 05:13:45;;;;;;;43.20;22.67;;;;;;;;;;8249022;28;20013;-62
2023/03/04 05:17:45;;;;;;;47.70;22.00;;;;;;;;;;8245940;28;20046;-62
2023/03/04 05:21:45;;;;;;;52.25;25.00;;;;;;;;;;8248277;28;20032;-62
2023/03/04 05:25:45;;;;;;;48.25;24.70;;;;;;;;;;8246170;28;20517;-61
2023/03/04 05:29:46;;;;;;;44.42;22.15;;;;;;;;;;8247732;28;20613;-62
2023/03/04 05:33:46;;;;;;;45.55;22.75;;;;;;;;;;8248455;28;20045;-61
2023/03/04 05:37:46;;;;;;;45.47;21.90;;;;;;;;;;8249753;28;20039;-62
2023/03/04 05:41:46;;;;;;;51.65;24.55;;;;;;;;;;8245428;28;20075;-62
2023/03/04 05:45:47;;;;;;;53.28;25.40;;;;;;;;;;8249492;28;20576;-62
2023/03/04 05:49:48;;;;;;;54.08;26.65;;;;;;;;;;8246236;28;20045;-62
2023/03/04 05:53:48;;;;;;;65.32;30.92;;;;;;;;;;8249890;28;20027;-62
2023/03/04 05:57:48;;;;;;;64.40;31.30;;;;;;;;;;8246884;28;20060;-61
2023/03/04 06:01:49;;;;;;;56.53;28.90;;;;;;;;;;8247421;28;20145;-62
2023/03/04 06:05:49;;;;;;;59.92;28.50;;;;;;;;;;8248716;28;20037;-62
2023/03/04 06:09:49;;;;;;;59.42;29.33;;;;;;;;;;8246335;28;20105;-61
2023/03/04 06:13:49;;;;;;;50.53;26.80;;;;;;;;;;8247966;28;20025;-62
2023/03/04 06:17:50;;;;;;;61.50;28.50;;;;;;;;;;8242677;28;20034;-61
2023/03/04 06:21:50;;;;;;;59.95;29.10;;;;;;;;;;8247123;28;20113;-62
2023/03/04 06:25:54;;;;;;;65.88;30.17;;;;;;;;;;8244516;28;20018;-62
2023/03/04 06:29:55;;;;;;;57.65;29.15;;;;;;;;;;8246472;28;20456;-61
2023/03/04 06:33:55;;;;;;;62.35;30.80;;;;;;;;;;8242495;28;20152;-62
2023/03/04 06:37:55;;;;;;;64.43;31.73;;;;;;;;;;8245787;28;20120;-62
2023/03/04 06:41:55;;;;;;;54.05;28.58;;;;;;;;;;8246045;28;20360;-62
2023/03/04 06:45:55;;;;;;;65.55;30.92;;;;;;;;;;8244645;28;20708;-61
2023/03/04 06:49:56;;;;;;;68.40;32.10;;;;;;;;;;8245105;28;20157;-61
2023/03/04 06:53:56;;;;;;;73.32;31.38;;;;;;;;;;8243262;28;20026;-61
2023/03/04 06:57:56;;;;;;;62.80;31.55;;;;;;;;;;8244560;28;20030;-61
2023/03/04 07:01:56;;;;;;;66.35;32.08;;;;;;;;;;8244163;28;20644;-62
2023/03/04 07:05:56;;;;;;;69.80;32.28;;;;;;;;;;8253005;28;20028;-62
2023/03/04 07:09:56;;;;;;;62.30;29.60;;;;;;;;;;8250073;28;20402;-62
2023/03/04 07:13:57;;;;;;;61.47;28.90;;;;;;;;;;8250829;28;20021;-61
2023/03/04 07:17:57;;;;;;;59.80;29.08;;;;;;;;;;8250339;28;20033;-61
2023/03/04 07:21:57;;;;;;;54.15;27.40;;;;;;;;;;8249027;28;20228;-61
2023/03/04 07:25:57;;;;;;;55.97;26.45;;;;;;;;;;8252359;28;20444;-62
2023/03/04 07:29:57;;;;;;;51.33;24.85;;;;;;;;;;8249052;28;20022;-62
2023/03/04 07:33:59;;;;;;;52.42;25.10;;;;;;;;;;8249266;28;20079;-62
2023/03/04 07:37:59;;;;;;;60.40;27.10;;;;;;;;;;8249338;28;20083;-62
2023/03/04 07:41:59;;;;;;;58.13;26.75;;;;;;;;;;8253294;28;20141;-62
2023/03/04 07:46:00;;;;;;;54.03;24.75;;;;;;;;;;8243783;28;20733;-62
2023/03/04 07:50:00;;;;;;;52.25;25.40;;;;;;;;;;8219508;28;20030;-62
2023/03/04 07:54:00;;;;;;;49.35;22.83;;;;;;;;;;8217897;28;20112;-62
2023/03/04 07:58:02;;;;;;;47.38;23.17;;;;;;;;;;8217614;28;20018;-62
2023/03/04 08:02:02;;;;;;;44.65;22.25;;;;;;;;;;8218664;28;20432;-62
2023/03/04 08:06:06;;;;;;;45.53;21.25;;;;;;;;;;8218025;28;20033;-62
2023/03/04 08:10:07;;;;;;;46.22;20.73;;;;;;;;;;8216153;28;20034;-61
2023/03/04 08:14:08;;;;;;;43.38;20.02;;;;;;;;;;8218568;28;20031;-62
2023/03/04 08:18:08;;;;;;;39.10;18.83;;;;;;;;;;8219068;28;20042;-61
2023/03/04 08:22:08;;;;;;;40.55;20.73;;;;;;;;;;8218384;28;20144;-62
2023/03/04 08:26:10;;;;;;;41.42;19.63;;;;;;;;;;8210623;28;20025;-62
2023/03/04 08:30:11;;;;;;;41.03;20.63;;;;;;;;;;8216332;28;20559;-62
2023/03/04 08:34:12;;;;;;;42.22;20.42;;;;;;;;;;8213112;28;20057;-61
2023/03/04 08:38:12;;;;;;;40.33;20.17;;;;;;;;;;8216328;28;20616;-62
2023/03/04 08:42:12;;;;;;;35.47;17.83;;;;;;;;;;8217126;28;20085;-61
2023/03/04 08:46:12;;;;;;;41.88;18.27;;;;;;;;;;8215515;28;20213;-62
2023/03/04 08:50:13;;;;;;;40.40;17.88;;;;;;;;;;8216695;28;20034;-62
2023/03/04 08:54:13;;;;;;;38.03;17.88;;;;;;;;;;8217056;28;20660;-62
2023/03/04 08:58:13;;;;;;;34.60;17.15;;;;;;;;;;8215907;28;20041;-61
2023/03/04 09:02:13;;;;;;;37.40;17.85;;;;;;;;;;8215409;28;20068;-62
2023/03/04 09:06:14;;;;;;;38.88;17.52;;;;;;;;;;8215462;28;20030;-62
2023/03/04 09:10:14;;;;;;;37.63;16.38;;;;;;;;;;8212336;28;20054;-62
2023/03/04 09:14:14;;;;;;;35.17;16.00;;;;;;;;;;8215974;28;20540;-62
2023/03/04 09:18:15;;;;;;;38.05;15.77;;;;;;;;;;8213384;28;20038;-61
2023/03/04 09:22:15;;;;;;;30.58;14.75;;;;;;;;;;8215527;28;20561;-62
2023/03/04 09:26:25;;;;;;;29.98;14.25;;;;;;;;;;8213515;28;20076;-62
2023/03/04 09:30:26;;;;;;;35.55;14.77;;;;;;;;;;8213982;28;20042;-62
2023/03/04 09:34:26;;;;;;;35.05;14.30;;;;;;;;;;8212719;28;20699;-62
2023/03/04 09:38:26;;;;;;;30.73;13.93;;;;;;;;;;8215286;28;20601;-62
2023/03/04 09:42:35;;;;;;;28.40;14.38;;;;;;;;;;8219215;28;20034;-62
2023/03/04 09:46:37;;;;;;;29.27;12.27;;;;;;;;;;8220478;28;20035;-62
2023/03/04 09:50:40;;;;;;;30.98;12.43;;;;;;;;;;8216044;28;20037;-62
2023/03/04 09:54:54;;;;;;;29.38;11.95;;;;;;;;;;8213183;28;20485;-62
2023/03/04 09:58:59;;;;;;;28.17;11.82;;;;;;;;;;8216931;28;20144;-62
2023/03/04 10:03:09;;;;;;;28.15;11.50;;;;;;;;;;8210456;28;20210;-61
2023/03/04 10:07:14;;;;;;;25.65;10.90;;;;;;;;;;8212964;28;20033;-62
2023/03/04 10:11:14;;;;;;;25.63;11.35;;;;;;;;;;8214638;28;20037;-61
2023/03/04 10:15:22;;;;;;;32.25;11.20;;;;;;;;;;8215962;28;20034;-61
2023/03/04 10:19:32;;;;;;;29.00;12.07;;;;;;;;;;8213994;28;20479;-62
2023/03/04 10:23:33;;;;;;;24.50;10.20;;;;;;;;;;8210939;28;20362;-62
2023/03/04 10:27:33;;;;;;;23.38;9.60;;;;;;;;;;8212917;28;20319;-61
2023/03/04 10:31:35;;;;;;;22.38;9.30;;;;;;;;;;8210714;28;20054;-62
2023/03/04 10:35:37;;;;;;;22.50;9.65;;;;;;;;;;8213918;28;20515;-62
2023/03/04 10:39:39;;;;;;;19.98;9.18;;;;;;;;;;8213532;28;20284;-62
2023/03/04 10:43:39;;;;;;;18.42;8.43;;;;;;;;;;8215160;28;20042;-62
2023/03/04 10:47:39;;;;;;;17.00;8.57;;;;;;;;;;8212598;28;20679;-62
2023/03/04 10:51:42;;;;;;;25.00;9.75;;;;;;;;;;8213017;28;20042;-62
2023/03/04 10:55:43;;;;;;;19.23;8.88;;;;;;;;;;8211670;28;20022;-62
2023/03/04 10:59:56;;;;;;;17.38;8.90;;;;;;;;;;8212755;28;20325;-62
2023/03/04 11:03:56;;;;;;;24.30;8.23;;;;;;;;;;8213341;28;20045;-62
2023/03/04 11:08:00;;;;;;;20.65;8.35;;;;;;;;;;8214349;28;20670;-62
2023/03/04 11:12:01;;;;;;;17.48;8.27;;;;;;;;;;8212303;28;20056;-62
2023/03/04 11:16:02;;;;;;;16.30;6.97;;;;;;;;;;8214361;28;20041;-61
2023/03/04 11:20:15;;;;;;;19.88;8.45;;;;;;;;;;8212592;28;20029;-63
2023/03/04 11:24:24;;;;;;;18.00;7.95;;;;;;;;;;8213677;28;20316;-62
2023/03/04 11:28:27;;;;;;;14.05;7.70;;;;;;;;;;8210095;28;20053;-62
2023/03/04 11:32:31;;;;;;;18.75;7.57;;;;;;;;;;8208902;28;20049;-63
2023/03/04 11:36:37;;;;;;;23.10;8.15;;;;;;;;;;8205589;28;20037;-63
2023/03/04 11:40:43;;;;;;;20.65;8.43;;;;;;;;;;8207780;28;20037;-62
2023/03/04 11:44:43;;;;;;;20.77;8.32;;;;;;;;;;8209343;28;20026;-63
2023/03/04 11:48:55;;;;;;;18.85;8.38;;;;;;;;;;8208476;28;20034;-62
2023/03/04 11:53:01;;;;;;;23.13;9.68;;;;;;;;;;8213143;28;20030;-63
2023/03/04 11:57:19;;;;;;;23.00;9.10;;;;;;;;;;8214465;28;20026;-62
2023/03/04 12:01:25;;;;;;;20.52;9.00;;;;;;;;;;8212010;28;20031;-63
2023/03/04 12:05:29;;;;;;;17.27;8.43;;;;;;;;;;8214445;28;20069;-63
2023/03/04 12:09:29;;;;;;;22.38;10.13;;;;;;;;;;8211665;28;20019;-62
2023/03/04 12:13:40;;;;;;;21.48;10.25;;;;;;;;;;8214436;28;20038;-62
2023/03/04 12:17:40;;;;;;;22.35;9.82;;;;;;;;;;8237298;28;20494;-62
2023/03/04 12:22:10;;;;;;;21.83;10.25;;;;;;;;;;8246161;28;20040;-62
2023/03/04 12:26:23;;;;;;;26.90;10.73;;;;;;;;;;8234308;28;20411;-63
2023/03/04 12:30:33;;;;;;;27.00;10.82;;;;;;;;;;8241507;28;20642;-63
2023/03/04 12:34:42;;;;;;;26.20;11.68;;;;;;;;;;8245235;28;20028;-62
2023/03/04 12:38:45;;;;;;;23.13;11.18;;;;;;;;;;8240298;28;20040;-63
2023/03/04 12:42:58;;;;;;;20.00;10.25;;;;;;;;;;8246152;28;20566;-63
2023/03/04 12:47:10;;;;;;;24.08;10.23;;;;;;;;;;8244371;28;20037;-63
2023/03/04 12:51:19;;;;;;;21.45;11.30;;;;;;;;;;8246785;28;20018;-62
2023/03/04 12:55:24;;;;;;;26.58;11.68;;;;;;;;;;8243729;28;20121;-63
2023/03/04 12:59:25;;;;;;;;;;;;;;;;;;8244459;28;20014;-63
2023/03/04 13:03:41;;;;;;;22.33;10.73;;;;;;;;;;8245784;28;19928;-63
2023/03/04 13:08:01;;;;;;;23.38;10.90;;;;;;;;;;8245606;28;20124;-63
2023/03/04 13:12:01;;;;;;;22.17;10.85;;;;;;;;;;8242140;28;20029;-62
2023/03/04 13:16:02;;;;;;;27.80;11.90;;;;;;;;;;8242114;28;20045;-63
2023/03/04 13:20:21;;;;;;;23.13;11.20;;;;;;;;;;8243696;28;20056;-62
2023/03/04 13:24:40;;;;;;;24.00;11.75;;;;;;;;;;8251265;28;20026;-62
2023/03/04 13:28:40;;;;;;;20.13;10.73;;;;;;;;;;8256457;28;20516;-63
2023/03/04 13:32:40;;;;;;;21.67;11.38;;;;;;;;;;8247092;28;20046;-62
2023/03/04 13:36:55;;;;;;;23.77;11.80;;;;;;;;;;8247084;28;20021;-62
2023/03/04 13:41:05;;;;;;;24.80;12.25;;;;;;;;;;8243315;28;20038;-63
2023/03/04 13:45:25;;;;;;;21.92;11.55;;;;;;;;;;8242100;28;20100;-63
2023/03/04 13:49:25;;;;;;;29.83;11.95;;;;;;;;;;8246498;28;20120;-63
2023/03/04 13:53:29;;;;;;;21.02;11.32;;;;;;;;;;8242460;28;20610;-63
2023/03/04 13:57:29;;;;;;;23.23;10.73;;;;;;;;;;8243411;28;20079;-62
2023/03/04 14:01:31;;;;;;;20.10;9.57;;;;;;;;;;8238634;28;20034;-62
2023/03/04 14:05:34;;;;;;;19.83;9.20;;;;;;;;;;8243696;28;20477;-62
2023/03/04 14:09:34;;;;;;;14.18;7.88;;;;;;;;;;8242826;28;20500;-62
2023/03/04 14:13:36;;;;;;;14.82;7.85;;;;;;;;;;8243188;28;20025;-63
2023/03/04 14:17:36;;;;;;;17.27;8.07;;;;;;;;;;8242637;28;20053;-63
2023/03/04 14:21:36;;;;;;;13.07;7.28;;;;;;;;;;8242577;28;20049;-62
2023/03/04 14:25:36;;;;;;;15.88;8.13;;;;;;;;;;8246712;28;20064;-62
2023/03/04 14:29:37;;;;;;;14.90;7.50;;;;;;;;;;8250853;28;20030;-63
2023/03/04 14:33:37;;;;;;;17.75;8.05;;;;;;;;;;8246586;28;20045;-62
2023/03/04 14:37:47;;;;;;;16.63;8.88;;;;;;;;;;8241729;28;20044;-62
2023/03/04 14:41:48;;;;;;;15.70;8.13;;;;;;;;;;8244045;28;20057;-63
2023/03/04 14:45:53;;;;;;;16.15;9.27;;;;;;;;;;8242822;28;20654;-63
2023/03/04 14:49:53;;;;;;;18.40;8.80;;;;;;;;;;8243044;28;20143;-63
2023/03/04 14:53:54;;;;;;;16.55;8.93;;;;;;;;;;8243043;28;20026;-63
2023/03/04 14:58:08;;;;;;;17.33;9.52;;;;;;;;;;8243134;28;20076;-63
2023/03/04 15:02:32;;;;;;;19.15;9.48;;;;;;;;;;8241886;28;20683;-63
2023/03/04 15:06:33;;;;;;;14.52;8.85;;;;;;;;;;8244025;28;20025;-62
2023/03/04 15:10:35;;;;;;;15.48;8.82;;;;;;;;;;8241589;28;20025;-63
2023/03/04 15:14:45;;;;;;;17.35;8.43;;;;;;;;;;8241200;28;20435;-62
2023/03/04 15:19:04;;;;;;;15.52;7.95;;;;;;;;;;8239183;28;20051;-62
2023/03/04 15:23:06;;;;;;;18.77;8.30;;;;;;;;;;8242323;28;20018;-62
2023/03/04 15:27:08;;;;;;;19.55;9.02;;;;;;;;;;8250362;28;20679;-63
2023/03/04 15:31:14;;;;;;;15.25;8.55;;;;;;;;;;8245563;28;20129;-62
2023/03/04 15:35:15;;;;;;;15.55;8.13;;;;;;;;;;8249887;28;20068;-62
2023/03/04 15:39:16;;;;;;;14.43;7.50;;;;;;;;;;8248090;28;20404;-63
2023/03/04 15:43:18;;;;;;;21.13;8.93;;;;;;;;;;8248940;28;20021;-62
2023/03/04 15:47:18;;;;;;;18.33;8.80;;;;;;;;;;8238335;28;20475;-62
2023/03/04 15:51:21;;;;;;;15.52;8.23;;;;;;;;;;8243954;28;20709;-62
2023/03/04 15:55:21;;;;;;;11.68;5.88;;;;;;;;;;8244389;28;20013;-63
2023/03/04 15:59:23;;;;;;;11.57;5.70;;;;;;;;;;8250136;28;20559;-63
2023/03/04 16:03:23;;;;;;;8.50;5.75;;;;;;;;;;8246095;28;20453;-63
2023/03/04 16:07:27;;;;;;;9.05;5.18;;;;;;;;;;8247491;28;20157;-63
2023/03/04 16:11:29;;;;;;;9.15;5.35;;;;;;;;;;8245003;28;20255;-63
2023/03/04 16:15:29;;;;;;;11.60;5.35;;;;;;;;;;8246032;28;20748;-63
2023/03/04 16:19:29;;;;;;;9.10;4.97;;;;;;;;;;8245255;28;21747;-62
2023/03/04 16:23:30;;;;;;;7.65;4.53;;;;;;;;;;8247177;28;20743;-61
2023/03/04 16:27:31;;;;;;;9.00;5.13;;;;;;;;;;8246987;28;20052;-61
2023/03/04 16:31:31;;;;;;;9.00;4.53;;;;;;;;;;8247677;28;20476;-60
2023/03/04 16:35:33;;;;;;;6.38;4.32;;;;;;;;;;8246234;28;20742;-60
2023/03/04 16:39:33;;;;;;;7.60;4.25;;;;;;;;;;8245063;28;20049;-61
2023/03/04 16:43:33;;;;;;;7.82;4.13;;;;;;;;;;8246087;28;20179;-62
2023/03/04 16:47:34;;;;;;;6.45;3.97;;;;;;;;;;8240317;28;20477;-62
2023/03/04 16:51:38;;;;;;;7.63;4.03;;;;;;;;;;8245938;28;20059;-63
2023/03/04 16:55:38;;;;;;;9.50;4.75;;;;;;;;;;8245183;28;20022;-63
2023/03/04 16:59:39;;;;;;;7.65;3.97;;;;;;;;;;8244621;28;20047;-63
2023/03/04 17:03:39;;;;;;;6.25;4.07;;;;;;;;;;8244827;28;20328;-63
2023/03/04 17:07:39;;;;;;;9.40;4.93;;;;;;;;;;8242661;28;20456;-62
2023/03/04 17:11:39;;;;;;;7.13;4.15;;;;;;;;;;8245203;28;20033;-63
2023/03/04 17:15:41;;;;;;;8.23;4.15;;;;;;;;;;8245688;28;20026;-63
2023/03/04 17:19:41;;;;;;;7.07;4.22;;;;;;;;;;8243748;28;20546;-62
2023/03/04 17:23:42;;;;;;;6.00;4.20;;;;;;;;;;8238492;28;20133;-63
2023/03/04 17:27:42;;;;;;;6.15;4.00;;;;;;;;;;8245243;28;20033;-63
2023/03/04 17:31:42;;;;;;;5.97;3.90;;;;;;;;;;8242924;28;20629;-63
2023/03/04 17:35:43;;;;;;;9.75;5.00;;;;;;;;;;8242249;28;20026;-63
2023/03/04 17:39:43;;;;;;;10.23;5.07;;;;;;;;;;8241815;28;20881;-63
2023/03/04 17:43:48;;;;;;;5.70;4.00;;;;;;;;;;8243103;28;20246;-63
2023/03/04 17:47:48;;;;;;;;;;;;;;;;;;8241618;28;20045;-62
2023/03/04 17:51:48;;;;;;;11.30;5.43;;;;;;;;;;8247040;28;20286;-62
2023/03/04 17:55:53;;;;;;;10.68;6.28;;;;;;;;;;8243465;28;20706;-63
2023/03/04 17:59:54;;;;;;;11.63;5.72;;;;;;;;;;8243798;28;20030;-62
2023/03/04 18:03:55;;;;;;;9.27;5.68;;;;;;;;;;8243306;28;20137;-63
2023/03/04 18:07:55;;;;;;;16.42;5.03;;;;;;;;;;8242009;28;20504;-62
2023/03/04 18:11:55;;;;;;;8.20;4.90;;;;;;;;;;8244151;28;20061;-62
2023/03/04 18:15:55;;;;;;;8.48;5.45;;;;;;;;;;8243135;28;20041;-62
2023/03/04 18:19:56;;;;;;;8.50;4.57;;;;;;;;;;8241379;28;20021;-62
2023/03/04 18:23:56;;;;;;;8.35;4.68;;;;;;;;;;8243854;28;20272;-62
2023/03/04 18:27:56;;;;;;;8.00;4.17;;;;;;;;;;8242192;28;20033;-62
2023/03/04 18:31:56;;;;;;;9.60;4.65;;;;;;;;;;8244872;28;20920;-63
2023/03/04 18:36:01;;;;;;;9.27;5.43;;;;;;;;;;8243070;28;20022;-62
2023/03/04 18:40:01;;;;;;;8.57;5.40;;;;;;;;;;8240731;28;20050;-62
2023/03/04 18:44:02;;;;;;;10.25;5.70;;;;;;;;;;8244471;28;20664;-62
2023/03/04 18:48:02;;;;;;;11.20;5.93;;;;;;;;;;8241079;28;20491;-62
2023/03/04 18:52:02;;;;;;;9.07;5.60;;;;;;;;;;8240539;28;20581;-62
2023/03/04 18:56:08;;;;;;;9.70;4.78;;;;;;;;;;8241904;28;20284;-62
2023/03/04 19:00:09;;;;;;;12.63;5.45;;;;;;;;;;8249377;28;20058;-62
2023/03/04 19:04:10;;;;;;;11.68;6.35;;;;;;;;;;8249607;28;20422;-62
2023/03/04 19:08:10;;;;;;;11.90;5.75;;;;;;;;;;8249161;28;20034;-62
2023/03/04 19:12:11;;;;;;;13.65;7.15;;;;;;;;;;8247532;28;20026;-63
2023/03/04 19:16:11;;;;;;;10.70;6.15;;;;;;;;;;8246033;28;20335;-62
2023/03/04 19:20:12;;;;;;;12.40;5.43;;;;;;;;;;8243276;28;20113;-62
2023/03/04 19:24:12;;;;;;;7.40;4.35;;;;;;;;;;8253806;28;20157;-62
2023/03/04 19:28:12;;;;;;;8.00;4.82;;;;;;;;;;8251705;28;20058;-62
2023/03/04 19:32:16;;;;;;;9.48;4.55;;;;;;;;;;8248986;28;20033;-62
2023/03/04 19:36:16;;;;;;;10.25;4.90;;;;;;;;;;8249788;28;20483;-62
2023/03/04 19:40:16;;;;;;;7.07;4.45;;;;;;;;;;8247800;28;20034;-62
2023/03/04 19:44:16;;;;;;;8.70;4.68;;;;;;;;;;8251283;28;20025;-62
2023/03/04 19:48:16;;;;;;;8.13;4.10;;;;;;;;;;8250093;28;20253;-63
2023/03/04 19:52:17;;;;;;;8.13;4.78;;;;;;;;;;8250407;28;20053;-62
2023/03/04 19:56:18;;;;;;;4.95;3.72;;;;;;;;;;8245091;28;20494;-62
2023/03/04 20:00:18;;;;;;;9.40;4.80;;;;;;;;;;8248941;28;20034;-62
2023/03/04 20:04:19;;;;;;;8.45;4.65;;;;;;;;;;8249297;28;20031;-62
2023/03/04 20:08:19;;;;;;;6.22;3.83;;;;;;;;;;8248495;28;20355;-62
2023/03/04 20:12:20;;;;;;;7.22;3.88;;;;;;;;;;8250803;28;20342;-62
2023/03/04 20:16:20;;;;;;;6.28;3.83;;;;;;;;;;8248977;28;20132;-62
2023/03/04 20:20:20;;;;;;;8.80;4.40;;;;;;;;;;8247140;28;20026;-62
2023/03/04 20:24:21;;;;;;;6.30;4.15;;;;;;;;;;8249327;28;20133;-62
2023/03/04 20:28:22;;;;;;;4.93;3.67;;;;;;;;;;8249451;28;20025;-62
2023/03/04 20:32:23;;;;;;;7.70;3.88;;;;;;;;;;8248286;28;20621;-62
2023/03/04 20:36:24;;;;;;;7.28;3.85;;;;;;;;;;8250837;28;20038;-62
2023/03/04 20:40:24;;;;;;;6.15;3.70;;;;;;;;;;8248301;28;20378;-62
2023/03/04 20:44:25;;;;;;;7.68;3.90;;;;;;;;;;8249797;28;20387;-62
2023/03/04 20:48:25;;;;;;;6.93;4.15;;;;;;;;;;8246043;28;20038;-62
2023/03/04 20:52:25;;;;;;;7.32;4.07;;;;;;;;;;8248611;28;20536;-63
2023/03/04 20:56:26;;;;;;;6.20;3.65;;;;;;;;;;8246662;28;20016;-62
2023/03/04 21:00:26;;;;;;;6.65;3.72;;;;;;;;;;8248056;28;20049;-62
2023/03/04 21:04:26;;;;;;;6.25;3.63;;;;;;;;;;8249815;28;20028;-62
2023/03/04 21:08:26;;;;;;;6.93;3.55;;;;;;;;;;8244843;28;20034;-62
2023/03/04 21:12:26;;;;;;;6.80;4.15;;;;;;;;;;8246652;28;20079;-63
2023/03/04 21:16:28;;;;;;;6.80;3.95;;;;;;;;;;8248619;28;20025;-62
2023/03/04 21:20:28;;;;;;;6.88;3.65;;;;;;;;;;8247707;28;20030;-62
2023/03/04 21:24:30;;;;;;;10.45;4.80;;;;;;;;;;8247584;28;20033;-62
2023/03/04 21:28:30;;;;;;;6.32;3.85;;;;;;;;;;8244654;28;20677;-62
2023/03/04 21:32:31;;;;;;;7.70;3.83;;;;;;;;;;8247034;28;20042;-63
2023/03/04 21:36:31;;;;;;;6.60;4.07;;;;;;;;;;8249640;28;20403;-63
2023/03/04 21:40:31;;;;;;;5.75;3.88;;;;;;;;;;8246355;28;20404;-63
2023/03/04 21:44:31;;;;;;;6.70;4.07;;;;;;;;;;8244942;28;20054;-62
2023/03/04 21:48:31;;;;;;;7.75;4.25;;;;;;;;;;8246282;28;20600;-62
2023/03/04 21:52:32;;;;;;;6.80;4.18;;;;;;;;;;8247506;28;20018;-62
2023/03/04 21:56:32;;;;;;;7.28;4.97;;;;;;;;;;8257058;28;20152;-62
2023/03/04 22:00:33;;;;;;;9.05;5.20;;;;;;;;;;8256288;28;20084;-63
2023/03/04 22:04:33;;;;;;;7.75;4.93;;;;;;;;;;8257304;28;20116;-62
2023/03/04 22:08:33;;;;;;;8.50;4.77;;;;;;;;;;8253832;28;20057;-62
2023/03/04 22:12:34;;;;;;;9.75;5.20;;;;;;;;;;8257287;28;20291;-62
2023/03/04 22:16:34;;;;;;;7.57;4.63;;;;;;;;;;8256331;28;20770;-63
2023/03/04 22:20:35;;;;;;;7.95;4.82;;;;;;;;;;8258289;28;20021;-62
2023/03/04 22:24:35;;;;;;;7.93;4.82;;;;;;;;;;8254567;28;20535;-62
2023/03/04 22:28:36;;;;;;;5.85;4.35;;;;;;;;;;8255265;28;20030;-62
2023/03/04 22:32:36;;;;;;;6.75;4.43;;;;;;;;;;8253962;28;20145;-62
2023/03/04 22:36:38;;;;;;;9.55;4.57;;;;;;;;;;8254270;28;20459;-62
2023/03/04 22:40:38;;;;;;;7.35;5.03;;;;;;;;;;8248589;28;20042;-62
2023/03/04 22:44:38;;;;;;;8.55;5.00;;;;;;;;;;8251240;28;20300;-62
2023/03/04 22:48:38;;;;;;;9.07;4.83;;;;;;;;;;8253008;28;20033;-62
2023/03/04 22:52:40;;;;;;;7.30;4.70;;;;;;;;;;8255110;28;20297;-62
2023/03/04 22:56:41;;;;;;;8.75;4.40;;;;;;;;;;8253844;28;20050;-62
2023/03/04 23:00:41;;;;;;;9.02;4.40;;;;;;;;;;8255099;28;20041;-62
2023/03/04 23:04:41;;;;;;;6.13;4.55;;;;;;;;;;8252525;28;20030;-62
2023/03/04 23:08:42;;;;;;;7.10;4.45;;;;;;;;;;8251977;28;20033;-62
2023/03/04 23:12:42;;;;;;;8.90;4.70;;;;;;;;;;8254113;28;20030;-62
2023/03/04 23:16:43;;;;;;;6.65;4.25;;;;;;;;;;8256444;28;20812;-62
2023/03/04 23:20:43;;;;;;;5.70;4.43;;;;;;;;;;8254068;28;20111;-61
2023/03/04 23:24:43;;;;;;;7.43;4.30;;;;;;;;;;8250972;28;20412;-62
2023/03/04 23:28:43;;;;;;;6.65;4.50;;;;;;;;;;8251048;28;20169;-61
2023/03/04 23:32:44;;;;;;;6.20;4.40;;;;;;;;;;8256051;28;20041;-62
2023/03/04 23:36:44;;;;;;;8.25;4.65;;;;;;;;;;8254095;28;20279;-62
2023/03/04 23:40:44;;;;;;;10.93;5.63;;;;;;;;;;8249959;28;21059;-62
2023/03/04 23:44:44;;;;;;;9.93;4.97;;;;;;;;;;8257509;28;20025;-62